createdAt,value
2022-08-17T00:02:25.259Z,17.40
2022-08-17T00:04:53.770Z,17.40
2022-08-17T00:07:20.490Z,17.30
2022-08-17T00:09:47.167Z,17.20
2022-08-17T00:12:41.621Z,17.20
2022-08-17T00:15:01.231Z,17.10
2022-08-17T00:17:27.961Z,17.10
2022-08-17T00:19:54.676Z,17.00
2022-08-17T00:22:35.123Z,17.00
2022-08-17T00:25:07.395Z,16.90
2022-08-17T00:27:35.294Z,17.00
2022-08-17T00:30:02.091Z,17.00
2022-08-17T00:33:12.189Z,17.00
2022-08-17T00:35:20.049Z,17.00
2022-08-17T00:37:46.754Z,17.00
2022-08-17T00:40:15.205Z,16.90
2022-08-17T00:42:43.449Z,16.90
2022-08-17T00:45:14.486Z,16.90
2022-08-17T00:47:42.249Z,16.90
2022-08-17T00:50:12.375Z,17.00
2022-08-17T00:52:50.258Z,17.00
2022-08-17T00:55:18.192Z,17.00
2022-08-17T00:57:53.463Z,17.00
2022-08-17T01:00:32.622Z,16.90
2022-08-17T01:03:03.044Z,16.70
2022-08-17T01:05:32.245Z,16.40
2022-08-17T01:08:01.472Z,16.20
2022-08-17T01:10:58.444Z,16.10
2022-08-17T01:13:23.241Z,16.10
2022-08-17T01:15:59.093Z,16.00
2022-08-17T01:18:27.181Z,16.00
2022-08-17T01:20:58.875Z,16.00
2022-08-17T01:23:28.780Z,15.90
2022-08-17T01:25:58.614Z,16.00
2022-08-17T01:28:52.449Z,16.10
2022-08-17T01:31:16.490Z,16.10
2022-08-17T01:33:43.423Z,16.30
2022-08-17T01:36:10.466Z,16.30
2022-08-17T01:38:38.410Z,16.30
2022-08-17T01:41:15.471Z,16.30
2022-08-17T01:43:47.870Z,16.40
2022-08-17T01:46:23.916Z,16.30
2022-08-17T01:48:51.390Z,16.30
2022-08-17T01:51:19.740Z,16.20
2022-08-17T01:53:50.127Z,16.20
2022-08-17T01:56:20.769Z,16.10
2022-08-17T01:58:47.630Z,16.10
2022-08-17T02:01:21.885Z,16.00
2022-08-17T02:03:59.057Z,15.90
2022-08-17T02:06:29.720Z,15.90
2022-08-17T02:09:02.339Z,15.90
2022-08-17T02:11:32.698Z,15.80
2022-08-17T02:14:02.872Z,15.80
2022-08-17T02:16:37.916Z,15.80
2022-08-17T02:19:13.864Z,15.80
2022-08-17T02:21:42.355Z,15.80
2022-08-17T02:24:13.235Z,15.80
2022-08-17T02:26:39.990Z,15.80
2022-08-17T02:29:07.267Z,15.80
2022-08-17T02:31:35.486Z,15.70
2022-08-17T02:34:03.830Z,15.60
2022-08-17T02:36:31.786Z,15.60
2022-08-17T02:38:58.662Z,15.60
2022-08-17T02:41:25.562Z,15.60
2022-08-17T02:43:53.124Z,15.60
2022-08-17T02:46:20.028Z,15.60
2022-08-17T02:48:47.298Z,15.60
2022-08-17T02:51:14.189Z,15.50
2022-08-17T02:53:40.973Z,15.50
2022-08-17T02:56:08.031Z,15.60
2022-08-17T02:58:36.137Z,15.60
2022-08-17T03:01:08.075Z,15.70
2022-08-17T03:03:36.561Z,15.70
2022-08-17T03:06:04.660Z,15.70
2022-08-17T03:08:31.697Z,15.80
2022-08-17T03:10:58.430Z,15.80
2022-08-17T03:13:25.282Z,15.70
2022-08-17T03:15:52.092Z,15.70
2022-08-17T03:18:25.122Z,15.60
2022-08-17T03:20:58.245Z,15.60
2022-08-17T03:23:26.120Z,15.60
2022-08-17T03:25:55.124Z,15.60
2022-08-17T03:28:23.430Z,15.60
2022-08-17T03:30:51.219Z,15.60
2022-08-17T03:33:19.161Z,15.60
2022-08-17T03:35:46.864Z,15.60
2022-08-17T03:38:16.944Z,15.50
2022-08-17T03:40:56.412Z,15.50
2022-08-17T03:43:30.920Z,15.50
2022-08-17T03:46:28.810Z,15.40
2022-08-17T03:49:22.020Z,15.30
2022-08-17T03:52:07.593Z,15.20
2022-08-17T03:54:52.935Z,15.20
2022-08-17T03:57:19.712Z,15.10
2022-08-17T03:59:47.717Z,15.10
2022-08-17T04:02:22.806Z,15.10
2022-08-17T04:04:53.749Z,15.10
2022-08-17T04:07:22.671Z,15.20
2022-08-17T04:09:49.435Z,15.20
2022-08-17T04:12:18.588Z,15.30
2022-08-17T04:14:53.521Z,15.30
2022-08-17T04:17:24.130Z,15.40
2022-08-17T04:19:50.946Z,15.30
2022-08-17T04:22:33.318Z,15.30
2022-08-17T04:25:20.610Z,15.30
2022-08-17T04:27:48.695Z,15.30
2022-08-17T04:30:15.783Z,15.30
2022-08-17T04:33:06.306Z,15.40
2022-08-17T04:35:40.118Z,15.40
2022-08-17T04:38:08.718Z,15.40
2022-08-17T04:40:54.293Z,15.40
2022-08-17T04:43:23.026Z,15.40
2022-08-17T04:45:55.701Z,15.60
2022-08-17T04:48:43.822Z,15.50
2022-08-17T04:51:13.487Z,15.60
2022-08-17T04:53:43.960Z,15.70
2022-08-17T04:56:17.059Z,15.70
2022-08-17T04:58:47.835Z,15.80
2022-08-17T05:01:15.723Z,15.80
2022-08-17T05:03:43.626Z,15.90
2022-08-17T05:06:10.486Z,15.90
2022-08-17T05:08:37.266Z,16.00
2022-08-17T05:11:04.010Z,15.90
2022-08-17T05:13:30.745Z,16.00
2022-08-17T05:16:00.721Z,16.00
2022-08-17T05:18:28.723Z,16.10
2022-08-17T05:20:55.758Z,16.10
2022-08-17T05:23:25.122Z,16.10
2022-08-17T05:25:55.327Z,16.20
2022-08-17T05:28:27.391Z,16.20
2022-08-17T05:30:56.756Z,16.20
2022-08-17T05:33:27.410Z,16.30
2022-08-17T05:35:57.494Z,16.30
2022-08-17T05:38:25.904Z,16.30
2022-08-17T05:40:53.019Z,16.40
2022-08-17T05:43:25.960Z,16.40
2022-08-17T05:46:26.321Z,16.50
2022-08-17T05:48:57.033Z,16.50
2022-08-17T05:51:58.858Z,16.60
2022-08-17T05:54:33.046Z,16.60
2022-08-17T05:57:05.281Z,16.60
2022-08-17T06:00:12.330Z,16.70
2022-08-17T06:02:55.285Z,16.80
2022-08-17T06:05:54.412Z,16.90
2022-08-17T06:08:45.702Z,17.00
2022-08-17T06:11:38.614Z,17.10
2022-08-17T06:14:41.073Z,17.20
2022-08-17T06:17:13.550Z,17.20
2022-08-17T06:19:50.385Z,17.30
2022-08-17T06:22:21.210Z,17.30
2022-08-17T06:24:54.074Z,17.40
2022-08-17T06:27:42.969Z,17.50
2022-08-17T06:30:21.253Z,17.60
2022-08-17T06:32:50.966Z,17.80
2022-08-17T06:35:32.028Z,17.90
2022-08-17T06:38:09.144Z,18.10
2022-08-17T06:40:59.079Z,18.20
2022-08-17T06:43:50.513Z,18.40
2022-08-17T06:46:17.160Z,18.50
2022-08-17T06:48:52.304Z,18.70
2022-08-17T06:51:26.900Z,18.70
2022-08-17T06:54:05.487Z,18.80
2022-08-17T06:56:53.132Z,18.90
2022-08-17T06:59:26.581Z,19.00
2022-08-17T07:02:19.633Z,19.20
2022-08-17T07:04:56.803Z,19.30
2022-08-17T07:07:42.148Z,19.50
2022-08-17T07:10:10.062Z,19.60
2022-08-17T07:12:41.016Z,19.70
2022-08-17T07:15:22.783Z,19.80
2022-08-17T07:17:49.919Z,20.00
2022-08-17T07:20:20.514Z,20.10
2022-08-17T07:23:00.461Z,20.40
2022-08-17T07:25:30.374Z,20.40
2022-08-17T07:28:00.855Z,20.60
2022-08-17T07:30:31.041Z,20.80
2022-08-17T07:33:17.763Z,20.90
2022-08-17T07:35:46.211Z,21.10
2022-08-17T07:38:25.725Z,21.30
2022-08-17T07:41:01.952Z,21.50
2022-08-17T07:43:41.017Z,21.80
2022-08-17T07:46:47.460Z,22.00
2022-08-17T07:49:14.105Z,22.10
2022-08-17T07:51:56.642Z,22.20
2022-08-17T07:54:36.770Z,22.50
2022-08-17T07:57:30.193Z,22.70
2022-08-17T07:59:59.952Z,22.90
2022-08-17T08:02:38.622Z,23.00
2022-08-17T08:05:44.303Z,23.20
2022-08-17T08:08:38.429Z,23.30
2022-08-17T08:11:28.137Z,23.40
2022-08-17T08:13:54.849Z,23.40
2022-08-17T08:16:29.160Z,23.40
2022-08-17T08:19:01.649Z,23.50
2022-08-17T08:21:58.900Z,23.50
2022-08-17T08:24:31.482Z,23.70
2022-08-17T08:27:13.760Z,23.90
2022-08-17T08:29:52.653Z,23.90
2022-08-17T08:32:36.868Z,24.10
2022-08-17T08:35:26.956Z,24.20
2022-08-17T08:38:29.201Z,24.20
2022-08-17T08:41:44.666Z,24.10
2022-08-17T08:45:03.579Z,24.30
2022-08-17T08:47:37.552Z,24.50
2022-08-17T08:50:30.123Z,24.70
2022-08-17T08:53:21.250Z,24.90
2022-08-17T08:56:08.278Z,25.10
2022-08-17T08:59:06.411Z,25.40
2022-08-17T09:02:00.594Z,25.60
2022-08-17T09:04:30.338Z,25.70
2022-08-17T09:07:25.989Z,25.70
2022-08-17T09:10:15.868Z,25.80
2022-08-17T09:13:13.091Z,25.60
2022-08-17T09:15:46.650Z,25.50
2022-08-17T09:19:02.395Z,25.50
2022-08-17T09:21:38.116Z,25.50
2022-08-17T09:24:32.697Z,25.70
2022-08-17T09:27:02.785Z,25.70
2022-08-17T09:29:35.476Z,25.80
2022-08-17T09:32:18.133Z,26.10
2022-08-17T09:34:54.855Z,26.30
2022-08-17T09:37:37.304Z,26.50
2022-08-17T09:40:25.528Z,26.60
2022-08-17T09:43:04.417Z,26.80
2022-08-17T09:45:57.293Z,26.90
2022-08-17T09:48:40.473Z,27.00
2022-08-17T09:51:18.067Z,27.20
2022-08-17T09:53:44.937Z,27.30
2022-08-17T09:56:17.785Z,27.40
2022-08-17T09:58:56.350Z,27.40
2022-08-17T10:01:35.273Z,27.30
2022-08-17T10:04:17.755Z,27.30
2022-08-17T10:07:02.498Z,27.30
2022-08-17T10:10:04.669Z,27.20
2022-08-17T10:12:38.537Z,27.30
2022-08-17T10:15:28.129Z,27.50
2022-08-17T10:18:08.725Z,27.90
2022-08-17T10:20:50.164Z,28.10
2022-08-17T10:23:42.866Z,28.10
2022-08-17T10:26:26.801Z,28.20
2022-08-17T10:29:10.290Z,28.40
2022-08-17T10:31:42.257Z,28.40
2022-08-17T10:34:38.668Z,28.40
2022-08-17T10:37:42.178Z,28.40
2022-08-17T10:40:32.475Z,28.60
2022-08-17T10:43:29.359Z,28.60
2022-08-17T10:46:10.300Z,28.60
2022-08-17T10:49:17.659Z,28.60
2022-08-17T10:51:55.451Z,28.70
2022-08-17T10:54:38.920Z,28.80
2022-08-17T10:57:34.407Z,28.80
2022-08-17T11:00:08.153Z,28.80
2022-08-17T11:02:49.287Z,28.90
2022-08-17T11:05:43.748Z,28.80
2022-08-17T11:08:38.364Z,28.80
2022-08-17T11:11:19.767Z,28.90
2022-08-17T11:13:58.930Z,28.90
2022-08-17T11:16:32.494Z,28.70
2022-08-17T11:19:33.544Z,28.60
2022-08-17T11:22:14.310Z,28.50
2022-08-17T11:24:45.613Z,28.70
2022-08-17T11:27:22.817Z,29.00
2022-08-17T11:30:01.780Z,29.30
2022-08-17T11:32:37.180Z,29.70
2022-08-17T11:35:20.724Z,29.80
2022-08-17T11:37:56.293Z,29.90
2022-08-17T11:40:33.814Z,29.70
2022-08-17T11:43:13.675Z,29.80
2022-08-17T11:45:53.788Z,29.70
2022-08-17T11:49:11.697Z,29.80
2022-08-17T11:52:00.073Z,29.90
2022-08-17T11:54:33.254Z,30.20
2022-08-17T11:57:21.570Z,30.30
2022-08-17T11:59:48.223Z,30.40
2022-08-17T12:02:32.905Z,30.40
2022-08-17T12:05:12.362Z,30.40
2022-08-17T12:08:10.710Z,30.30
2022-08-17T12:10:49.623Z,29.90
2022-08-17T12:13:17.409Z,29.90
2022-08-17T12:15:50.996Z,30.00
2022-08-17T12:18:29.238Z,30.10
2022-08-17T12:21:24.347Z,30.20
2022-08-17T12:24:03.202Z,30.50
2022-08-17T12:26:33.764Z,30.60
2022-08-17T12:29:18.090Z,30.70
2022-08-17T12:32:02.203Z,30.70
2022-08-17T12:34:38.081Z,30.60
2022-08-17T12:37:12.863Z,30.50
2022-08-17T12:39:49.383Z,30.40
2022-08-17T12:42:25.860Z,30.50
2022-08-17T12:44:52.696Z,30.50
2022-08-17T12:47:22.862Z,30.50
2022-08-17T12:49:54.738Z,30.60
2022-08-17T12:52:32.731Z,30.60
2022-08-17T12:55:12.629Z,30.50
2022-08-17T12:57:39.263Z,30.30
2022-08-17T13:00:19.906Z,30.30
2022-08-17T13:02:53.497Z,30.20
2022-08-17T13:05:30.187Z,30.10
2022-08-17T13:07:59.365Z,30.10
2022-08-17T13:10:32.898Z,30.20
2022-08-17T13:13:05.129Z,30.30
2022-08-17T13:15:44.928Z,30.30
2022-08-17T13:18:38.964Z,30.40
2022-08-17T13:21:23.722Z,30.50
2022-08-17T13:24:17.481Z,30.60
2022-08-17T13:26:46.106Z,30.70
2022-08-17T13:29:24.120Z,30.70
2022-08-17T13:32:13.990Z,30.70
2022-08-17T13:35:12.154Z,30.60
2022-08-17T13:37:36.458Z,30.80
2022-08-17T13:40:09.520Z,30.60
2022-08-17T13:42:51.859Z,30.40
2022-08-17T13:45:35.493Z,30.30
2022-08-17T13:48:15.695Z,30.10
2022-08-17T13:50:56.914Z,30.00
2022-08-17T13:53:35.687Z,30.20
2022-08-17T13:56:31.737Z,30.50
2022-08-17T13:59:05.221Z,30.80
2022-08-17T14:01:32.154Z,31.10
2022-08-17T14:04:04.358Z,31.30
2022-08-17T14:06:54.440Z,31.40
2022-08-17T14:09:25.425Z,31.60
2022-08-17T14:11:54.063Z,31.60
2022-08-17T14:14:23.133Z,31.40
2022-08-17T14:16:51.454Z,31.20
2022-08-17T14:19:21.880Z,30.80
2022-08-17T14:21:49.159Z,30.50
2022-08-17T14:24:33.057Z,30.40
2022-08-17T14:27:01.188Z,30.50
2022-08-17T14:29:31.086Z,30.40
2022-08-17T14:32:02.999Z,30.60
2022-08-17T14:34:30.037Z,31.00
2022-08-17T14:36:57.066Z,31.40
2022-08-17T14:39:23.865Z,31.70
2022-08-17T14:41:50.693Z,31.80
2022-08-17T14:44:17.418Z,31.60
2022-08-17T14:46:44.739Z,31.40
2022-08-17T14:49:12.856Z,31.20
2022-08-17T14:51:43.755Z,31.20
2022-08-17T14:54:28.785Z,31.20
2022-08-17T14:57:22.485Z,31.20
2022-08-17T14:59:45.885Z,31.20
2022-08-17T15:02:13.144Z,31.20
2022-08-17T15:04:45.433Z,31.10
2022-08-17T15:07:12.394Z,31.00
2022-08-17T15:09:39.158Z,31.10
2022-08-17T15:12:06.703Z,31.30
2022-08-17T15:14:35.402Z,31.20
2022-08-17T15:17:05.596Z,31.20
2022-08-17T15:19:32.276Z,31.30
2022-08-17T15:21:58.894Z,31.30
2022-08-17T15:24:25.577Z,31.50
2022-08-17T15:26:52.193Z,31.60
2022-08-17T15:29:18.878Z,31.60
2022-08-17T15:31:45.530Z,31.60
2022-08-17T15:34:12.213Z,31.40
2022-08-17T15:36:41.345Z,31.40
2022-08-17T15:39:19.488Z,31.40
2022-08-17T15:41:47.267Z,31.30
2022-08-17T15:44:32.399Z,31.20
2022-08-17T15:47:01.908Z,30.90
2022-08-17T15:49:28.710Z,30.70
2022-08-17T15:51:55.469Z,30.70
2022-08-17T15:54:23.355Z,30.70
2022-08-17T15:56:50.474Z,30.70
2022-08-17T15:59:17.221Z,30.60
2022-08-17T16:03:01.402Z,30.60
2022-08-17T16:04:31.796Z,30.40
2022-08-17T16:06:59.644Z,30.50
2022-08-17T16:09:26.637Z,30.60
2022-08-17T16:11:55.616Z,30.60
2022-08-17T16:14:32.521Z,30.60
2022-08-17T16:17:00.893Z,30.60
2022-08-17T16:19:27.529Z,30.30
2022-08-17T16:21:54.226Z,30.20
2022-08-17T16:24:20.841Z,30.00
2022-08-17T16:26:47.581Z,29.80
2022-08-17T16:29:14.205Z,29.50
2022-08-17T16:31:41.790Z,29.50
2022-08-17T16:34:18.046Z,29.50
2022-08-17T16:36:55.598Z,29.50
2022-08-17T16:39:27.194Z,29.50
2022-08-17T16:41:55.619Z,29.50
2022-08-17T16:44:22.326Z,29.50
2022-08-17T16:46:50.433Z,29.40
2022-08-17T16:49:35.589Z,29.20
2022-08-17T16:55:41.426Z,28.70
2022-08-17T16:58:27.168Z,28.60
2022-08-17T17:00:54.371Z,28.40
2022-08-17T17:03:25.932Z,28.20
2022-08-17T17:06:34.027Z,28.10
2022-08-17T17:09:23.306Z,27.90
2022-08-17T17:13:03.059Z,27.80
2022-08-17T17:15:22.132Z,27.70
2022-08-17T17:17:50.418Z,27.60
2022-08-17T17:20:28.896Z,27.40
2022-08-17T17:23:12.679Z,27.30
2022-08-17T17:26:09.343Z,27.20
2022-08-17T17:29:06.336Z,27.00
2022-08-17T17:31:39.335Z,26.80
2022-08-17T17:34:10.229Z,26.50
2022-08-17T17:36:45.391Z,26.40
2022-08-17T17:39:16.688Z,26.30
2022-08-17T17:41:54.830Z,26.10
2022-08-17T17:44:32.079Z,26.00
2022-08-17T17:47:01.963Z,25.90
2022-08-17T17:49:49.651Z,25.90
2022-08-17T17:52:38.714Z,25.80
2022-08-17T17:55:27.022Z,25.80
2022-08-17T17:58:09.135Z,25.50
2022-08-17T18:00:52.726Z,25.40
2022-08-17T18:03:19.412Z,25.30
2022-08-17T18:06:14.896Z,25.20
2022-08-17T18:09:04.631Z,25.20
2022-08-17T18:11:53.937Z,25.00
2022-08-17T18:14:59.658Z,24.90
2022-08-17T18:17:29.567Z,24.60
2022-08-17T18:19:56.422Z,24.50
2022-08-17T18:22:23.948Z,24.30
2022-08-17T18:24:55.864Z,24.30
2022-08-17T18:27:37.345Z,24.20
2022-08-17T18:30:13.249Z,24.30
2022-08-17T18:32:43.716Z,24.30
2022-08-17T18:35:10.805Z,24.20
2022-08-17T18:37:43.662Z,24.20
2022-08-17T18:40:19.728Z,24.10
2022-08-17T18:43:27.224Z,24.00
2022-08-17T18:45:56.787Z,23.70
2022-08-17T18:48:33.150Z,23.60
2022-08-17T18:51:40.573Z,23.40
2022-08-17T18:54:20.816Z,23.30
2022-08-17T18:56:59.268Z,23.20
2022-08-17T18:59:42.227Z,23.20
2022-08-17T19:02:22.126Z,23.10
2022-08-17T19:05:09.764Z,23.00
2022-08-17T19:07:42.535Z,23.10
2022-08-17T19:10:20.150Z,23.20
2022-08-17T19:13:12.535Z,23.20
2022-08-17T19:16:15.057Z,23.40
2022-08-17T19:19:09.883Z,23.40
2022-08-17T19:21:41.423Z,23.40
2022-08-17T19:24:19.572Z,23.20
2022-08-17T19:27:11.870Z,23.20
2022-08-17T19:30:07.624Z,23.20
2022-08-17T19:32:35.982Z,23.20
2022-08-17T19:35:05.850Z,23.20
2022-08-17T19:37:42.111Z,23.20
2022-08-17T19:40:52.976Z,23.20
2022-08-17T19:43:36.335Z,23.20
2022-08-17T19:46:29.367Z,23.20
2022-08-17T19:49:12.736Z,23.30
2022-08-17T19:51:55.254Z,23.20
2022-08-17T19:54:35.100Z,23.20
2022-08-17T19:57:16.181Z,23.30
2022-08-17T19:59:58.879Z,23.20
2022-08-17T20:02:46.585Z,23.20
2022-08-17T20:06:01.311Z,23.30
2022-08-17T20:08:32.132Z,23.30
2022-08-17T20:11:10.640Z,23.20
2022-08-17T20:13:44.561Z,23.20
2022-08-17T20:16:12.561Z,23.20
2022-08-17T20:18:58.648Z,23.10
2022-08-17T20:22:05.244Z,23.00
2022-08-17T20:25:12.433Z,22.80
2022-08-17T20:28:06.066Z,22.60
2022-08-17T20:30:37.894Z,22.70
2022-08-17T20:33:08.362Z,22.70
2022-08-17T20:35:40.360Z,22.80
2022-08-17T20:38:33.360Z,22.90
2022-08-17T20:41:03.782Z,22.90
2022-08-17T20:43:33.344Z,22.90
2022-08-17T20:46:19.024Z,22.90
2022-08-17T20:48:49.801Z,22.90
2022-08-17T20:51:34.671Z,22.90
2022-08-17T20:54:25.801Z,22.90
2022-08-17T20:56:57.282Z,23.00
2022-08-17T20:59:25.541Z,22.90
2022-08-17T21:02:18.074Z,22.90
2022-08-17T21:04:52.906Z,22.90
2022-08-17T21:07:43.030Z,22.90
2022-08-17T21:10:15.856Z,22.90
2022-08-17T21:13:08.156Z,23.00
2022-08-17T21:16:06.247Z,23.00
2022-08-17T21:19:16.900Z,22.90
2022-08-17T21:22:18.692Z,22.60
2022-08-17T21:24:55.619Z,22.30
2022-08-17T21:27:54.502Z,22.10
2022-08-17T21:30:41.418Z,22.00
2022-08-17T21:33:20.311Z,22.10
2022-08-17T21:35:59.494Z,22.10
2022-08-17T21:38:37.459Z,22.20
2022-08-17T21:41:04.425Z,22.20
2022-08-17T21:43:35.419Z,22.30
2022-08-17T21:46:22.656Z,22.30
2022-08-17T21:48:54.518Z,22.30
2022-08-17T21:51:28.224Z,22.30
2022-08-17T21:54:00.031Z,22.30
2022-08-17T21:56:48.266Z,22.20
2022-08-17T21:59:19.369Z,22.20
2022-08-17T22:02:05.948Z,22.30
2022-08-17T22:04:38.422Z,22.20
2022-08-17T22:07:13.403Z,22.10
2022-08-17T22:09:48.620Z,22.10
2022-08-17T22:12:21.444Z,22.00
2022-08-17T22:15:02.469Z,21.80
2022-08-17T22:17:35.547Z,21.60
2022-08-17T22:20:07.629Z,21.40
2022-08-17T22:22:55.933Z,21.40
2022-08-17T22:25:24.561Z,21.40
2022-08-17T22:28:00.096Z,21.40
2022-08-17T22:30:35.762Z,21.40
2022-08-17T22:33:36.363Z,21.40
2022-08-17T22:36:13.250Z,21.50
2022-08-17T22:38:41.448Z,21.50
2022-08-17T22:41:16.106Z,21.40
2022-08-17T22:43:44.798Z,21.30
2022-08-17T22:46:12.465Z,21.20
2022-08-17T22:48:49.093Z,21.10
2022-08-17T22:51:21.419Z,21.00
2022-08-17T22:54:10.146Z,21.00
2022-08-17T22:57:01.026Z,21.00
2022-08-17T22:59:45.142Z,21.00
2022-08-17T23:02:14.902Z,21.00
2022-08-17T23:04:45.054Z,21.00
2022-08-17T23:07:11.815Z,21.00
2022-08-17T23:09:38.859Z,21.00
2022-08-17T23:12:09.474Z,21.10
2022-08-17T23:14:45.379Z,21.10
2022-08-17T23:17:12.723Z,21.00
2022-08-17T23:19:39.530Z,20.90
2022-08-17T23:22:09.217Z,20.70
2022-08-17T23:24:45.506Z,20.50
2022-08-17T23:27:12.521Z,20.50
2022-08-17T23:29:41.894Z,20.40
2022-08-17T23:32:14.561Z,20.40
2022-08-17T23:34:43.000Z,20.40
2022-08-17T23:37:11.424Z,20.40
2022-08-17T23:39:39.429Z,20.40
2022-08-17T23:42:09.372Z,20.50
2022-08-17T23:44:37.709Z,20.40
2022-08-17T23:47:05.597Z,20.40
2022-08-17T23:49:32.543Z,20.40
2022-08-17T23:52:01.937Z,20.40
2022-08-17T23:54:43.678Z,20.30
2022-08-17T23:57:19.026Z,20.20
2022-08-17T23:59:46.274Z,20.20
